createdAt,value
2022-08-30T00:00:52.170Z,77.20
2022-08-30T00:03:19.319Z,77.60
2022-08-30T00:05:46.433Z,77.90
2022-08-30T00:08:13.477Z,77.50
2022-08-30T00:10:40.986Z,77.40
2022-08-30T00:13:08.104Z,77.00
2022-08-30T00:15:35.173Z,77.10
2022-08-30T00:18:02.027Z,77.30
2022-08-30T00:20:30.298Z,77.50
2022-08-30T00:22:57.150Z,77.70
2022-08-30T00:25:24.600Z,77.80
2022-08-30T00:27:51.459Z,77.70
2022-08-30T00:30:18.550Z,77.80
2022-08-30T00:32:45.359Z,77.80
2022-08-30T00:35:13.553Z,77.90
2022-08-30T00:37:40.569Z,78.70
2022-08-30T00:40:09.363Z,78.60
2022-08-30T00:42:36.285Z,78.60
2022-08-30T00:45:24.391Z,77.80
2022-08-30T00:47:51.449Z,77.90
2022-08-30T00:50:20.902Z,78.00
2022-08-30T00:52:49.233Z,78.20
2022-08-30T00:55:16.833Z,78.30
2022-08-30T00:57:44.439Z,78.40
2022-08-30T01:00:12.223Z,78.30
2022-08-30T01:02:39.096Z,78.20
2022-08-30T01:05:07.140Z,78.70
2022-08-30T01:07:34.821Z,78.40
2022-08-30T01:10:02.328Z,78.50
2022-08-30T01:12:30.092Z,79.40
2022-08-30T01:14:57.717Z,78.40
2022-08-30T01:17:25.153Z,78.10
2022-08-30T01:19:55.418Z,78.10
2022-08-30T01:22:49.575Z,78.40
2022-08-30T01:25:28.052Z,78.50
2022-08-30T01:28:06.766Z,78.50
2022-08-30T01:30:33.647Z,78.40
2022-08-30T01:33:02.347Z,78.40
2022-08-30T01:35:29.867Z,78.60
2022-08-30T01:37:56.662Z,79.50
2022-08-30T01:40:23.561Z,78.60
2022-08-30T01:42:50.408Z,78.90
2022-08-30T01:45:17.255Z,78.70
2022-08-30T01:47:44.084Z,79.50
2022-08-30T01:50:11.074Z,78.40
2022-08-30T01:52:38.837Z,78.30
2022-08-30T01:55:06.313Z,78.50
2022-08-30T01:57:33.094Z,78.40
2022-08-30T01:59:59.975Z,78.70
2022-08-30T02:02:28.125Z,78.70
2022-08-30T02:04:55.219Z,78.80
2022-08-30T02:07:22.761Z,78.70
2022-08-30T02:09:49.741Z,78.70
2022-08-30T02:12:16.519Z,78.50
2022-08-30T02:14:43.269Z,78.70
2022-08-30T02:17:10.957Z,78.80
2022-08-30T02:19:38.467Z,78.70
2022-08-30T02:22:05.715Z,78.50
2022-08-30T02:24:32.780Z,78.30
2022-08-30T02:26:59.564Z,78.30
2022-08-30T02:29:26.359Z,78.50
2022-08-30T02:31:53.175Z,78.60
2022-08-30T02:34:20.024Z,78.70
2022-08-30T02:36:46.869Z,78.70
2022-08-30T02:39:13.813Z,78.80
2022-08-30T02:41:40.877Z,78.90
2022-08-30T02:44:07.797Z,78.90
2022-08-30T02:46:34.942Z,78.90
2022-08-30T02:49:12.983Z,79.10
2022-08-30T02:51:49.420Z,79.30
2022-08-30T02:54:19.904Z,78.90
2022-08-30T02:56:47.969Z,78.70
2022-08-30T02:59:15.540Z,78.60
2022-08-30T03:01:42.562Z,78.70
2022-08-30T03:04:09.908Z,78.70
2022-08-30T03:06:36.692Z,79.00
2022-08-30T03:09:04.175Z,78.90
2022-08-30T03:11:31.168Z,79.00
2022-08-30T03:13:57.954Z,79.10
2022-08-30T03:16:24.813Z,79.20
2022-08-30T03:18:51.650Z,79.20
2022-08-30T03:21:18.429Z,79.40
2022-08-30T03:23:45.432Z,79.50
2022-08-30T03:26:14.737Z,79.30
2022-08-30T03:28:44.609Z,79.10
2022-08-30T03:31:11.587Z,78.90
2022-08-30T03:33:40.390Z,78.80
2022-08-30T03:36:08.256Z,78.90
2022-08-30T03:38:35.820Z,79.00
2022-08-30T03:41:02.627Z,79.20
2022-08-30T03:43:29.588Z,79.10
2022-08-30T03:45:56.590Z,80.20
2022-08-30T03:48:23.432Z,79.40
2022-08-30T03:50:50.247Z,79.60
2022-08-30T03:53:17.268Z,79.50
2022-08-30T03:55:44.133Z,79.60
2022-08-30T03:58:11.040Z,79.70
2022-08-30T04:00:37.905Z,79.50
2022-08-30T04:03:04.734Z,79.30
2022-08-30T04:05:31.504Z,79.00
2022-08-30T04:07:58.286Z,79.00
2022-08-30T04:10:25.070Z,79.10
2022-08-30T04:12:51.977Z,79.30
2022-08-30T04:15:19.061Z,79.50
2022-08-30T04:17:45.888Z,79.60
2022-08-30T04:20:12.749Z,79.60
2022-08-30T04:22:39.510Z,79.60
2022-08-30T04:25:07.046Z,79.70
2022-08-30T04:27:34.293Z,79.60
2022-08-30T04:30:01.207Z,80.30
2022-08-30T04:32:28.080Z,80.20
2022-08-30T04:34:58.630Z,79.60
2022-08-30T04:37:25.809Z,79.50
2022-08-30T04:39:57.881Z,79.30
2022-08-30T04:42:24.873Z,79.30
2022-08-30T04:44:51.656Z,79.40
2022-08-30T04:47:18.771Z,79.60
2022-08-30T04:49:46.052Z,80.80
2022-08-30T04:52:12.808Z,79.70
2022-08-30T04:54:40.514Z,81.50
2022-08-30T04:57:07.884Z,82.20
2022-08-30T04:59:34.752Z,83.10
2022-08-30T05:02:01.584Z,82.60
2022-08-30T05:04:28.707Z,82.80
2022-08-30T05:06:55.567Z,83.00
2022-08-30T05:09:22.619Z,82.20
2022-08-30T05:11:49.659Z,82.70
2022-08-30T05:14:16.423Z,83.40
2022-08-30T05:16:43.591Z,83.50
2022-08-30T05:19:11.059Z,83.10
2022-08-30T05:21:40.598Z,83.10
2022-08-30T05:24:09.204Z,83.70
2022-08-30T05:26:38.623Z,83.70
2022-08-30T05:29:06.181Z,84.10
2022-08-30T05:31:34.692Z,84.10
2022-08-30T05:34:01.963Z,83.70
2022-08-30T05:36:30.494Z,83.30
2022-08-30T05:39:01.308Z,83.60
2022-08-30T05:41:28.953Z,83.30
2022-08-30T05:44:02.720Z,83.00
2022-08-30T05:49:01.883Z,81.10
2022-08-30T05:51:29.557Z,83.00
2022-08-30T05:53:57.134Z,83.10
2022-08-30T05:56:33.751Z,83.00
2022-08-30T05:59:01.123Z,84.90
2022-08-30T06:01:33.866Z,87.70
2022-08-30T06:04:03.911Z,87.10
2022-08-30T06:06:32.363Z,86.30
2022-08-30T06:08:59.121Z,86.10
2022-08-30T06:11:26.000Z,84.30
2022-08-30T06:13:53.993Z,83.80
2022-08-30T06:16:23.090Z,84.70
2022-08-30T06:18:50.074Z,84.30
2022-08-30T06:21:26.643Z,85.50
2022-08-30T06:23:54.189Z,84.30
2022-08-30T06:26:21.373Z,84.20
2022-08-30T06:28:49.250Z,83.80
2022-08-30T06:31:16.856Z,83.40
2022-08-30T06:33:43.909Z,83.00
2022-08-30T06:36:13.862Z,82.70
2022-08-30T06:38:41.169Z,82.70
2022-08-30T06:41:09.315Z,85.60
2022-08-30T06:43:36.617Z,84.20
2022-08-30T06:46:11.567Z,83.70
2022-08-30T06:48:38.371Z,84.80
2022-08-30T06:51:05.599Z,86.10
2022-08-30T06:53:32.539Z,86.00
2022-08-30T06:56:09.539Z,85.60
2022-08-30T06:58:38.717Z,85.50
2022-08-30T07:01:06.242Z,85.50
2022-08-30T07:03:34.169Z,85.50
2022-08-30T07:06:00.931Z,85.00
2022-08-30T07:08:28.035Z,84.50
2022-08-30T07:10:55.184Z,86.20
2022-08-30T07:13:23.931Z,85.10
2022-08-30T07:15:51.069Z,84.10
2022-08-30T07:18:36.272Z,83.30
2022-08-30T07:21:15.069Z,83.00
2022-08-30T07:23:43.245Z,83.20
2022-08-30T07:26:11.955Z,81.80
2022-08-30T07:28:39.344Z,82.00
2022-08-30T07:33:34.347Z,82.50
2022-08-30T07:36:01.775Z,82.10
2022-08-30T07:38:30.346Z,81.70
2022-08-30T07:41:01.116Z,81.60
2022-08-30T07:43:28.893Z,81.60
2022-08-30T07:45:58.074Z,81.80
2022-08-30T07:48:24.983Z,81.50
2022-08-30T07:50:57.053Z,81.40
2022-08-30T07:53:25.197Z,81.80
2022-08-30T07:55:52.157Z,81.60
2022-08-30T07:58:19.024Z,81.30
2022-08-30T08:00:46.028Z,81.00
2022-08-30T08:03:12.906Z,80.90
2022-08-30T08:05:41.601Z,80.40
2022-08-30T08:08:08.870Z,80.40
2022-08-30T08:10:37.688Z,80.30
2022-08-30T08:13:04.702Z,76.30
2022-08-30T08:15:31.634Z,72.90
2022-08-30T08:17:58.435Z,75.50
2022-08-30T08:20:26.503Z,78.30
2022-08-30T08:22:53.266Z,79.00
2022-08-30T08:25:20.052Z,80.00
2022-08-30T08:27:48.138Z,81.60
2022-08-30T08:30:15.141Z,81.50
2022-08-30T08:32:42.004Z,82.20
2022-08-30T08:35:08.967Z,84.90
2022-08-30T08:37:35.714Z,84.90
2022-08-30T08:40:02.852Z,83.10
2022-08-30T08:42:43.710Z,81.40
2022-08-30T08:45:18.136Z,79.60
2022-08-30T08:48:04.551Z,78.80
2022-08-30T08:50:31.502Z,78.10
2022-08-30T08:53:46.201Z,77.70
2022-08-30T08:56:16.493Z,77.50
2022-08-30T08:58:48.109Z,77.20
2022-08-30T09:01:17.043Z,77.30
2022-08-30T09:03:44.635Z,77.20
2022-08-30T09:06:28.577Z,77.70
2022-08-30T09:08:55.964Z,77.40
2022-08-30T09:11:26.360Z,77.10
2022-08-30T09:13:54.535Z,77.20
2022-08-30T09:16:50.526Z,77.10
2022-08-30T09:19:52.249Z,77.30
2022-08-30T09:22:46.782Z,76.80
2022-08-30T09:25:13.601Z,78.00
2022-08-30T09:27:45.125Z,76.90
2022-08-30T09:30:20.668Z,78.80
2022-08-30T09:32:55.141Z,78.40
2022-08-30T09:35:26.809Z,78.20
2022-08-30T09:37:56.409Z,78.10
2022-08-30T09:40:37.070Z,72.60
2022-08-30T09:43:16.240Z,74.80
2022-08-30T09:45:49.698Z,74.70
2022-08-30T09:48:31.120Z,73.60
2022-08-30T09:51:00.838Z,73.70
2022-08-30T09:53:31.498Z,75.10
2022-08-30T09:56:10.354Z,75.60
2022-08-30T09:59:06.270Z,74.90
2022-08-30T10:01:37.693Z,74.00
2022-08-30T10:04:19.480Z,74.70
2022-08-30T10:06:54.924Z,74.60
2022-08-30T10:09:44.616Z,74.50
2022-08-30T10:12:17.226Z,74.50
2022-08-30T10:14:59.706Z,74.70
2022-08-30T10:17:29.706Z,74.80
2022-08-30T10:20:17.639Z,74.90
2022-08-30T10:23:08.708Z,75.00
2022-08-30T10:25:38.851Z,75.00
2022-08-30T10:28:16.762Z,75.10
2022-08-30T10:30:52.406Z,75.10
2022-08-30T10:33:25.410Z,75.10
2022-08-30T10:35:58.929Z,75.10
2022-08-30T10:38:33.870Z,75.20
2022-08-30T10:41:23.853Z,75.10
2022-08-30T10:44:21.303Z,75.00
2022-08-30T10:47:09.661Z,75.00
2022-08-30T10:49:44.665Z,75.10
2022-08-30T10:52:26.220Z,75.00
2022-08-30T10:55:08.497Z,75.00
2022-08-30T10:57:37.318Z,75.00
2022-08-30T11:00:08.838Z,74.90
2022-08-30T11:03:00.554Z,75.00
2022-08-30T11:05:42.065Z,74.90
2022-08-30T11:08:26.624Z,75.00
2022-08-30T11:10:58.876Z,75.00
2022-08-30T11:13:32.482Z,75.00
2022-08-30T11:16:06.300Z,74.90
2022-08-30T11:18:59.205Z,74.90
2022-08-30T11:21:39.925Z,74.90
2022-08-30T11:24:12.032Z,75.00
2022-08-30T11:26:45.402Z,75.00
2022-08-30T11:29:35.846Z,75.10
2022-08-30T11:32:17.332Z,75.10
2022-08-30T11:34:46.860Z,75.10
2022-08-30T11:37:41.332Z,75.20
2022-08-30T11:40:15.560Z,75.50
2022-08-30T11:42:48.469Z,75.50
2022-08-30T11:45:28.218Z,75.40
2022-08-30T11:48:05.950Z,75.70
2022-08-30T11:51:03.878Z,76.20
2022-08-30T11:53:52.019Z,76.00
2022-08-30T11:56:28.127Z,75.50
2022-08-30T11:58:59.259Z,75.90
2022-08-30T12:01:49.936Z,75.40
2022-08-30T12:04:22.932Z,74.80
2022-08-30T12:07:04.098Z,76.00
2022-08-30T12:09:32.933Z,77.10
2022-08-30T12:12:06.314Z,78.60
2022-08-30T12:14:41.179Z,80.40
2022-08-30T12:17:43.600Z,78.90
2022-08-30T12:20:23.140Z,81.30
2022-08-30T12:22:51.211Z,82.80
2022-08-30T12:25:26.568Z,83.40
2022-08-30T12:28:10.745Z,84.00
2022-08-30T12:30:40.038Z,83.70
2022-08-30T12:33:12.464Z,84.30
2022-08-30T12:35:42.867Z,81.90
2022-08-30T12:38:18.388Z,81.20
2022-08-30T12:40:50.452Z,80.20
2022-08-30T12:43:24.824Z,80.60
2022-08-30T12:45:53.511Z,80.30
2022-08-30T12:48:21.410Z,80.10
2022-08-30T12:50:53.513Z,79.60
2022-08-30T12:53:39.363Z,79.20
2022-08-30T12:56:09.247Z,78.40
2022-08-30T12:58:49.603Z,78.40
2022-08-30T13:01:27.523Z,78.20
2022-08-30T13:04:21.074Z,77.30
2022-08-30T13:06:55.723Z,76.30
2022-08-30T13:09:32.429Z,76.80
2022-08-30T13:12:03.332Z,75.80
2022-08-30T13:14:49.599Z,75.70
2022-08-30T13:17:19.203Z,75.80
2022-08-30T13:19:56.112Z,75.40
2022-08-30T13:22:38.616Z,75.40
2022-08-30T13:25:06.403Z,75.10
2022-08-30T13:27:34.412Z,75.00
2022-08-30T13:30:13.534Z,75.10
2022-08-30T13:32:40.748Z,75.00
2022-08-30T13:35:08.562Z,75.20
2022-08-30T13:37:51.963Z,75.10
2022-08-30T13:40:19.883Z,75.20
2022-08-30T13:42:46.927Z,75.30
2022-08-30T13:48:01.615Z,75.50
2022-08-30T13:50:28.445Z,75.40
2022-08-30T13:52:57.552Z,75.70
2022-08-30T13:55:24.322Z,75.80
2022-08-30T13:57:55.244Z,75.90
2022-08-30T14:00:23.479Z,76.00
2022-08-30T14:02:54.132Z,76.00
2022-08-30T14:11:02.609Z,76.60
2022-08-30T14:13:29.580Z,76.60
2022-08-30T14:18:45.128Z,76.90
2022-08-30T14:21:12.120Z,77.00
2022-08-30T14:23:38.952Z,76.80
2022-08-30T14:26:11.598Z,77.40
2022-08-30T14:28:38.641Z,77.40
2022-08-30T14:31:05.586Z,77.10
2022-08-30T14:33:33.519Z,77.80
2022-08-30T14:36:00.388Z,80.20
2022-08-30T14:38:27.153Z,83.60
2022-08-30T14:40:54.370Z,79.60
2022-08-30T14:43:21.140Z,79.80
2022-08-30T14:45:49.853Z,83.50
2022-08-30T14:48:18.155Z,88.40
2022-08-30T14:50:46.739Z,83.00
2022-08-30T14:53:13.495Z,82.60
2022-08-30T14:55:40.451Z,83.20
2022-08-30T14:58:09.135Z,83.50
2022-08-30T15:00:37.393Z,83.60
2022-08-30T15:03:04.725Z,84.00
2022-08-30T15:05:32.553Z,83.50
2022-08-30T15:07:59.675Z,80.50
2022-08-30T15:10:27.009Z,82.20
2022-08-30T15:12:53.998Z,82.00
2022-08-30T15:15:21.897Z,83.60
2022-08-30T15:17:49.124Z,83.50
2022-08-30T15:20:18.737Z,81.90
2022-08-30T15:22:46.089Z,80.80
2022-08-30T15:25:13.295Z,80.00
2022-08-30T15:27:40.097Z,79.40
2022-08-30T15:30:07.407Z,79.30
2022-08-30T15:32:34.172Z,79.70
2022-08-30T15:35:00.980Z,79.20
2022-08-30T15:37:30.067Z,78.90
2022-08-30T15:39:57.319Z,78.60
2022-08-30T15:42:24.086Z,78.90
2022-08-30T15:44:55.931Z,79.80
2022-08-30T15:47:23.425Z,80.10
2022-08-30T15:49:57.837Z,81.20
2022-08-30T15:52:28.562Z,80.30
2022-08-30T15:54:55.940Z,80.70
2022-08-30T15:57:23.204Z,80.20
2022-08-30T15:59:50.619Z,80.40
2022-08-30T16:02:17.970Z,80.60
2022-08-30T16:04:45.063Z,80.90
2022-08-30T16:07:13.825Z,80.70
2022-08-30T16:09:40.886Z,80.90
2022-08-30T16:12:09.755Z,80.60
2022-08-30T16:14:37.055Z,81.20
2022-08-30T16:17:04.886Z,81.40
2022-08-30T16:19:31.782Z,81.50
2022-08-30T16:21:58.939Z,81.00
2022-08-30T16:24:26.032Z,80.90
2022-08-30T16:26:53.317Z,80.70
2022-08-30T16:29:20.789Z,80.60
2022-08-30T16:31:48.418Z,81.00
2022-08-30T16:34:17.916Z,80.90
2022-08-30T16:36:47.727Z,80.90
2022-08-30T16:39:15.144Z,81.60
2022-08-30T16:41:42.683Z,81.70
2022-08-30T16:44:11.605Z,82.40
2022-08-30T16:46:40.269Z,82.40
2022-08-30T16:49:08.685Z,81.40
2022-08-30T16:51:36.093Z,79.60
2022-08-30T16:54:04.846Z,79.70
2022-08-30T16:56:32.314Z,80.30
2022-08-30T16:59:02.170Z,80.30
2022-08-30T17:01:30.888Z,79.80
2022-08-30T17:03:57.720Z,78.80
2022-08-30T17:06:24.510Z,79.40
2022-08-30T17:08:55.819Z,79.50
2022-08-30T17:11:23.515Z,79.20
2022-08-30T17:13:50.807Z,78.50
2022-08-30T17:16:22.705Z,78.10
2022-08-30T17:18:55.557Z,78.30
2022-08-30T17:21:22.439Z,78.60
2022-08-30T17:23:50.100Z,78.50
2022-08-30T17:26:18.425Z,78.20
2022-08-30T17:28:45.754Z,79.20
2022-08-30T17:31:12.588Z,79.40
2022-08-30T17:33:43.141Z,79.00
2022-08-30T17:36:12.405Z,79.90
2022-08-30T17:38:40.064Z,80.30
2022-08-30T17:41:12.067Z,79.60
2022-08-30T17:43:39.166Z,79.10
2022-08-30T17:46:07.576Z,78.50
2022-08-30T17:48:34.763Z,78.30
2022-08-30T17:51:02.111Z,78.20
2022-08-30T17:53:28.881Z,78.20
2022-08-30T17:55:56.486Z,78.00
2022-08-30T17:58:25.358Z,77.70
2022-08-30T18:00:54.171Z,77.40
2022-08-30T18:03:21.086Z,77.60
2022-08-30T18:05:48.103Z,77.80
2022-08-30T18:08:15.236Z,78.00
2022-08-30T18:10:41.988Z,78.00
2022-08-30T18:13:09.750Z,78.10
2022-08-30T18:15:36.557Z,78.20
2022-08-30T18:18:05.206Z,78.30
2022-08-30T18:20:32.117Z,78.30
2022-08-30T18:22:58.904Z,78.00
2022-08-30T18:25:25.662Z,77.90
2022-08-30T18:27:57.112Z,77.80
2022-08-30T18:30:33.302Z,78.40
2022-08-30T18:33:01.627Z,82.80
2022-08-30T18:35:29.753Z,87.60
2022-08-30T18:37:58.098Z,90.20
2022-08-30T18:40:24.894Z,90.50
2022-08-30T18:42:52.119Z,90.10
2022-08-30T18:45:23.086Z,90.20
2022-08-30T18:47:50.735Z,90.50
2022-08-30T18:50:17.568Z,90.50
2022-08-30T18:52:47.121Z,90.30
2022-08-30T18:55:13.974Z,90.00
2022-08-30T18:57:41.047Z,88.80
2022-08-30T19:00:10.312Z,88.10
2022-08-30T19:02:39.096Z,88.00
2022-08-30T19:05:10.263Z,88.30
2022-08-30T19:07:37.424Z,89.30
2022-08-30T19:10:05.288Z,89.90
2022-08-30T19:12:32.109Z,89.30
2022-08-30T19:14:59.367Z,88.10
2022-08-30T19:17:26.655Z,88.60
2022-08-30T19:19:53.694Z,86.40
2022-08-30T19:22:21.153Z,86.40
2022-08-30T19:24:49.789Z,87.00
2022-08-30T19:27:17.541Z,85.70
2022-08-30T19:29:45.129Z,85.20
2022-08-30T19:32:12.313Z,85.20
2022-08-30T19:34:39.976Z,84.40
2022-08-30T19:37:06.796Z,84.10
2022-08-30T19:39:34.736Z,84.00
2022-08-30T19:42:01.580Z,85.80
2022-08-30T19:44:28.576Z,84.00
2022-08-30T19:46:57.156Z,84.60
2022-08-30T19:49:24.299Z,84.50
2022-08-30T19:51:52.012Z,84.60
2022-08-30T19:54:19.176Z,84.00
2022-08-30T19:56:45.952Z,83.80
2022-08-30T19:59:15.171Z,83.50
2022-08-30T20:01:43.481Z,83.20
2022-08-30T20:04:13.513Z,83.00
2022-08-30T20:06:41.957Z,83.10
2022-08-30T20:09:10.569Z,82.90
2022-08-30T20:11:38.913Z,82.70
2022-08-30T20:14:06.615Z,82.80
2022-08-30T20:19:21.853Z,83.70
2022-08-30T20:22:08.461Z,83.80
2022-08-30T20:27:08.366Z,83.70
2022-08-30T20:29:35.229Z,83.60
2022-08-30T20:32:03.234Z,83.70
2022-08-30T20:34:30.063Z,83.50
2022-08-30T20:36:56.967Z,83.50
2022-08-30T20:39:24.361Z,83.80
2022-08-30T20:41:51.231Z,83.90
2022-08-30T20:44:18.350Z,83.90
2022-08-30T20:46:49.469Z,83.70
2022-08-30T20:49:16.353Z,83.50
2022-08-30T20:51:43.181Z,83.70
2022-08-30T20:54:10.005Z,83.70
2022-08-30T20:56:36.807Z,83.50
2022-08-30T20:59:04.379Z,83.70
2022-08-30T21:01:35.740Z,83.70
2022-08-30T21:04:05.531Z,83.50
2022-08-30T21:06:37.372Z,84.00
2022-08-30T21:09:05.341Z,83.20
2022-08-30T21:11:32.991Z,83.00
2022-08-30T21:13:59.884Z,83.30
2022-08-30T21:16:26.817Z,83.70
2022-08-30T21:18:53.603Z,83.80
2022-08-30T21:21:22.237Z,83.40
2022-08-30T21:23:49.631Z,83.40
2022-08-30T21:26:16.827Z,83.60
2022-08-30T21:28:44.892Z,83.60
2022-08-30T21:31:14.075Z,83.60
2022-08-30T21:33:41.036Z,83.50
2022-08-30T21:36:26.845Z,83.60
2022-08-30T21:38:53.719Z,83.90
2022-08-30T21:41:24.313Z,83.90
2022-08-30T21:43:58.077Z,83.80
2022-08-30T21:46:26.418Z,84.10
2022-08-30T21:48:53.648Z,84.00
2022-08-30T21:51:20.497Z,84.10
2022-08-30T21:53:47.310Z,83.90
2022-08-30T21:56:21.537Z,83.90
2022-08-30T21:58:48.845Z,84.00
2022-08-30T22:01:22.825Z,84.00
2022-08-30T22:03:50.683Z,84.00
2022-08-30T22:06:17.569Z,84.10
2022-08-30T22:08:45.704Z,84.00
2022-08-30T22:11:14.957Z,84.40
2022-08-30T22:13:43.367Z,84.30
2022-08-30T22:16:11.440Z,84.20
2022-08-30T22:18:38.293Z,84.20
2022-08-30T22:21:07.010Z,84.10
2022-08-30T22:23:34.128Z,84.30
2022-08-30T22:26:01.171Z,84.30
2022-08-30T22:28:28.536Z,84.60
2022-08-30T22:30:55.307Z,84.60
2022-08-30T22:33:22.063Z,84.70
2022-08-30T22:35:48.798Z,84.80
2022-08-30T22:38:15.612Z,85.00
2022-08-30T22:40:48.948Z,85.00
2022-08-30T22:43:16.200Z,85.10
2022-08-30T22:45:43.184Z,85.20
2022-08-30T22:48:10.304Z,85.00
2022-08-30T22:50:37.254Z,85.00
2022-08-30T22:53:04.683Z,84.70
2022-08-30T22:55:31.508Z,84.70
2022-08-30T22:57:58.254Z,84.70
2022-08-30T23:00:25.068Z,84.80
2022-08-30T23:02:52.684Z,84.80
2022-08-30T23:05:20.756Z,85.10
2022-08-30T23:07:47.551Z,85.10
2022-08-30T23:10:14.394Z,85.00
2022-08-30T23:12:41.266Z,85.20
2022-08-30T23:15:10.892Z,85.20
2022-08-30T23:17:39.760Z,85.30
2022-08-30T23:20:07.300Z,85.40
2022-08-30T23:22:34.053Z,85.30
2022-08-30T23:25:19.281Z,85.10
2022-08-30T23:28:05.473Z,85.00
2022-08-30T23:30:51.231Z,84.80
2022-08-30T23:33:36.502Z,85.00
2022-08-30T23:36:26.511Z,85.20
2022-08-30T23:39:11.762Z,85.10
2022-08-30T23:41:57.228Z,85.30
2022-08-30T23:44:42.406Z,85.30
2022-08-30T23:47:27.818Z,85.60
2022-08-30T23:50:17.018Z,85.70
2022-08-30T23:53:02.225Z,85.80
2022-08-30T23:55:47.568Z,86.00
2022-08-30T23:58:32.885Z,85.80
